createdAt,value
2018-01-17T00:00:59.751Z,90.81
2018-01-17T00:03:34.780Z,90.82
2018-01-17T00:06:09.635Z,90.75
2018-01-17T00:08:44.618Z,90.73
2018-01-17T00:11:19.278Z,90.80
2018-01-17T00:13:53.662Z,90.96
2018-01-17T00:16:28.850Z,90.92
2018-01-17T00:19:04.254Z,91.11
2018-01-17T00:21:39.712Z,91.08
2018-01-17T00:24:14.456Z,91.14
2018-01-17T00:26:49.422Z,91.06
2018-01-17T00:29:24.453Z,90.92
2018-01-17T00:31:59.250Z,90.72
2018-01-17T00:34:34.381Z,90.44
2018-01-17T00:37:08.705Z,90.61
2018-01-17T00:39:43.831Z,90.52
2018-01-17T00:42:18.878Z,90.58
2018-01-17T00:44:53.854Z,90.61
2018-01-17T00:47:28.829Z,90.64
2018-01-17T00:50:04.367Z,90.58
2018-01-17T00:52:39.762Z,90.63
2018-01-17T00:55:14.426Z,90.51
2018-01-17T00:57:49.423Z,90.63
2018-01-17T01:00:24.531Z,90.66
2018-01-17T01:02:59.572Z,90.84
2018-01-17T01:05:34.146Z,90.74
2018-01-17T01:08:09.570Z,90.76
2018-01-17T01:10:44.538Z,91.14
2018-01-17T01:13:19.490Z,91.61
2018-01-17T01:15:54.127Z,92.15
2018-01-17T01:18:28.888Z,92.69
2018-01-17T01:21:03.876Z,93.19
2018-01-17T01:23:39.882Z,93.53
2018-01-17T01:26:14.979Z,93.63
2018-01-17T01:28:49.915Z,93.64
2018-01-17T01:31:25.078Z,93.59
2018-01-17T01:33:59.862Z,93.62
2018-01-17T01:36:35.042Z,93.93
2018-01-17T01:39:09.944Z,94.25
2018-01-17T01:41:44.918Z,94.55
2018-01-17T01:44:19.586Z,94.73
2018-01-17T01:46:54.822Z,94.86
2018-01-17T01:49:29.745Z,95.24
2018-01-17T01:52:04.099Z,95.47
2018-01-17T01:54:40.062Z,95.61
2018-01-17T01:57:14.825Z,95.76
2018-01-17T01:59:49.572Z,95.82
2018-01-17T02:02:24.794Z,95.90
2018-01-17T02:04:59.679Z,95.87
2018-01-17T02:07:34.766Z,95.84
2018-01-17T02:10:09.804Z,96.18
2018-01-17T02:12:44.809Z,96.62
2018-01-17T02:15:19.706Z,96.98
2018-01-17T02:17:55.007Z,97.18
2018-01-17T02:20:29.955Z,97.47
2018-01-17T02:23:04.950Z,97.55
2018-01-17T02:25:40.123Z,97.68
2018-01-17T02:28:14.856Z,97.88
2018-01-17T02:30:49.894Z,97.50
2018-01-17T02:33:24.537Z,97.57
2018-01-17T02:35:59.742Z,97.68
2018-01-17T02:38:34.163Z,97.74
2018-01-17T02:41:09.314Z,97.55
2018-01-17T02:43:44.299Z,97.58
2018-01-17T02:46:19.637Z,97.71
2018-01-17T02:48:54.823Z,97.67
2018-01-17T02:51:29.683Z,97.91
2018-01-17T02:54:04.287Z,98.06
2018-01-17T02:56:40.185Z,98.27
2018-01-17T02:59:15.776Z,98.38
2018-01-17T03:01:51.038Z,98.66
2018-01-17T03:04:26.064Z,98.90
2018-01-17T03:07:01.188Z,98.93
2018-01-17T03:09:36.324Z,98.95
2018-01-17T03:12:11.087Z,98.85
2018-01-17T03:14:46.139Z,98.64
2018-01-17T03:17:21.347Z,98.42
2018-01-17T03:19:56.266Z,98.29
2018-01-17T03:22:31.235Z,98.41
2018-01-17T03:25:06.144Z,98.43
2018-01-17T03:27:41.166Z,98.54
2018-01-17T03:30:16.202Z,98.58
2018-01-17T03:32:51.462Z,98.73
2018-01-17T03:35:26.242Z,98.46
2018-01-17T03:38:01.049Z,98.38
2018-01-17T03:40:36.115Z,98.40
2018-01-17T03:43:10.986Z,98.53
2018-01-17T03:45:46.184Z,98.42
2018-01-17T03:48:21.044Z,98.17
2018-01-17T03:50:56.303Z,98.31
2018-01-17T03:53:31.170Z,98.27
2018-01-17T03:56:06.766Z,98.15
2018-01-17T03:58:41.294Z,98.29
2018-01-17T04:01:16.088Z,98.19
2018-01-17T04:03:51.466Z,98.02
2018-01-17T04:06:26.432Z,98.25
2018-01-17T04:09:01.355Z,98.52
2018-01-17T04:11:36.254Z,98.73
2018-01-17T04:14:11.208Z,98.79
2018-01-17T04:16:46.279Z,98.78
2018-01-17T04:19:21.898Z,98.62
2018-01-17T04:21:56.679Z,98.45
2018-01-17T04:24:31.801Z,98.25
2018-01-17T04:27:06.398Z,98.23
2018-01-17T04:29:41.577Z,97.98
2018-01-17T04:32:16.191Z,97.86
2018-01-17T04:34:51.166Z,97.83
2018-01-17T04:37:26.075Z,97.84
2018-01-17T04:40:01.047Z,97.69
2018-01-17T04:42:35.766Z,97.65
2018-01-17T04:45:10.513Z,97.55
2018-01-17T04:47:45.880Z,97.63
2018-01-17T04:50:20.918Z,97.90
2018-01-17T04:52:55.664Z,97.74
2018-01-17T04:55:30.260Z,97.75
2018-01-17T04:58:05.107Z,97.98
2018-01-17T05:00:40.509Z,98.12
2018-01-17T05:03:15.131Z,98.21
2018-01-17T05:05:50.514Z,98.16
2018-01-17T05:08:26.121Z,98.20
2018-01-17T05:11:01.282Z,98.20
2018-01-17T05:13:35.707Z,98.01
2018-01-17T05:16:10.987Z,97.92
2018-01-17T05:18:46.356Z,98.15
2018-01-17T05:21:21.130Z,98.46
2018-01-17T05:23:56.146Z,98.62
2018-01-17T05:26:31.229Z,98.51
2018-01-17T05:29:06.259Z,98.31
2018-01-17T05:31:41.262Z,98.18
2018-01-17T05:34:16.395Z,97.95
2018-01-17T05:36:51.722Z,97.69
2018-01-17T05:39:26.522Z,97.39
2018-01-17T05:42:01.633Z,97.24
2018-01-17T05:44:36.474Z,96.99
2018-01-17T05:47:11.382Z,96.79
2018-01-17T05:49:46.498Z,96.70
2018-01-17T05:52:21.322Z,96.61
2018-01-17T05:54:56.597Z,96.86
2018-01-17T05:57:31.309Z,97.11
2018-01-17T06:00:06.323Z,97.53
2018-01-17T06:02:41.296Z,97.76
2018-01-17T06:05:16.210Z,97.91
2018-01-17T06:07:51.241Z,97.91
2018-01-17T06:10:26.230Z,98.19
2018-01-17T06:13:01.310Z,98.80
2018-01-17T06:15:36.370Z,99.15
2018-01-17T06:18:11.450Z,99.32
2018-01-17T06:20:46.443Z,99.33
2018-01-17T06:23:21.779Z,99.18
2018-01-17T06:25:57.254Z,99.12
2018-01-17T06:28:32.302Z,99.08
2018-01-17T06:31:07.330Z,99.12
2018-01-17T06:33:41.765Z,99.01
2018-01-17T06:36:16.627Z,98.91
2018-01-17T06:38:51.697Z,98.76
2018-01-17T06:41:26.582Z,98.71
2018-01-17T06:44:01.627Z,99.01
2018-01-17T06:46:37.325Z,99.15
2018-01-17T06:49:11.830Z,99.11
2018-01-17T06:51:46.757Z,99.12
2018-01-17T06:54:21.627Z,99.11
2018-01-17T06:56:56.623Z,98.96
2018-01-17T06:59:31.606Z,98.58
2018-01-17T07:02:06.759Z,98.44
2018-01-17T07:04:41.743Z,98.45
2018-01-17T07:07:16.442Z,98.15
2018-01-17T07:09:51.350Z,97.98
2018-01-17T07:12:25.785Z,97.94
2018-01-17T07:15:00.858Z,97.80
2018-01-17T07:17:35.993Z,97.62
2018-01-17T07:20:10.778Z,97.60
2018-01-17T07:22:45.881Z,97.54
2018-01-17T07:25:20.789Z,97.52
2018-01-17T07:27:55.720Z,97.66
2018-01-17T07:30:30.696Z,97.82
2018-01-17T07:33:05.721Z,97.89
2018-01-17T07:35:40.814Z,97.74
2018-01-17T07:38:15.670Z,97.43
2018-01-17T07:40:50.675Z,97.57
2018-01-17T07:43:25.498Z,97.73
2018-01-17T07:46:00.497Z,97.68
2018-01-17T07:48:35.486Z,97.66
2018-01-17T07:51:10.510Z,97.76
2018-01-17T07:53:45.706Z,97.95
2018-01-17T07:56:20.501Z,98.11
2018-01-17T07:58:55.031Z,97.99
2018-01-17T08:01:29.999Z,98.24
2018-01-17T08:04:05.131Z,98.46
2018-01-17T08:06:40.882Z,98.72
2018-01-17T08:09:16.014Z,98.84
2018-01-17T08:11:50.793Z,99.05
2018-01-17T08:14:25.864Z,99.20
2018-01-17T08:17:00.850Z,99.54
2018-01-17T08:19:35.989Z,99.67
2018-01-17T08:22:11.182Z,99.74
2018-01-17T08:24:46.668Z,99.70
2018-01-17T08:27:21.592Z,99.86
2018-01-17T08:29:56.870Z,100.00
2018-01-17T08:32:31.813Z,100.00
2018-01-17T08:35:06.734Z,100.00
2018-01-17T08:37:42.015Z,99.91
2018-01-17T08:40:17.095Z,99.48
2018-01-17T08:42:52.205Z,99.17
2018-01-17T08:45:27.718Z,99.12
2018-01-17T08:48:02.507Z,98.56
2018-01-17T08:50:37.109Z,98.20
2018-01-17T08:53:12.618Z,98.23
2018-01-17T08:55:47.498Z,97.81
2018-01-17T08:58:22.470Z,97.46
2018-01-17T09:00:57.557Z,97.10
2018-01-17T09:03:32.620Z,97.15
2018-01-17T09:06:07.586Z,96.87
2018-01-17T09:08:42.686Z,96.83
2018-01-17T09:11:17.638Z,96.42
2018-01-17T09:13:52.255Z,96.32
2018-01-17T09:16:27.125Z,96.32
2018-01-17T09:19:02.115Z,96.20
2018-01-17T09:21:37.190Z,95.96
2018-01-17T09:24:12.027Z,95.91
2018-01-17T09:26:46.962Z,95.90
2018-01-17T09:29:21.948Z,95.55
2018-01-17T09:31:56.838Z,95.12
2018-01-17T09:34:31.817Z,95.49
2018-01-17T09:37:06.728Z,95.76
2018-01-17T09:39:41.239Z,95.77
2018-01-17T09:42:16.138Z,95.95
2018-01-17T09:44:51.084Z,95.63
2018-01-17T09:47:26.129Z,95.40
2018-01-17T09:50:01.013Z,95.27
2018-01-17T09:52:35.971Z,95.34
2018-01-17T09:55:11.171Z,95.34
2018-01-17T09:57:46.182Z,95.18
2018-01-17T10:00:21.094Z,94.86
2018-01-17T10:02:56.187Z,95.05
2018-01-17T10:05:31.737Z,94.93
2018-01-17T10:08:06.649Z,94.54
2018-01-17T10:10:41.960Z,95.09
2018-01-17T10:13:16.849Z,94.70
2018-01-17T10:15:52.235Z,94.31
2018-01-17T10:18:27.090Z,93.94
2018-01-17T10:21:02.007Z,93.64
2018-01-17T10:23:36.966Z,92.25
2018-01-17T10:26:11.882Z,92.43
2018-01-17T10:28:46.949Z,92.47
2018-01-17T10:31:21.855Z,91.80
2018-01-17T10:33:56.587Z,91.60
2018-01-17T10:36:31.486Z,91.41
2018-01-17T10:39:06.118Z,91.72
2018-01-17T10:41:41.418Z,91.05
2018-01-17T10:44:16.342Z,89.68
2018-01-17T10:46:51.284Z,89.31
2018-01-17T10:49:25.974Z,88.78
2018-01-17T10:52:01.029Z,87.44
2018-01-17T10:54:36.114Z,86.54
2018-01-17T10:57:11.145Z,86.87
2018-01-17T10:59:46.413Z,86.68
2018-01-17T11:02:21.550Z,86.30
2018-01-17T11:04:56.303Z,86.16
2018-01-17T11:07:31.150Z,85.99
2018-01-17T11:10:06.503Z,85.22
2018-01-17T11:12:41.438Z,84.49
2018-01-17T11:15:16.202Z,84.33
2018-01-17T11:17:51.347Z,84.02
2018-01-17T11:20:26.343Z,83.28
2018-01-17T11:23:01.453Z,82.90
2018-01-17T11:25:36.409Z,83.25
2018-01-17T11:28:12.062Z,83.03
2018-01-17T11:30:47.150Z,83.25
2018-01-17T11:33:21.326Z,83.43
2018-01-17T11:35:56.554Z,83.71
2018-01-17T11:38:31.614Z,84.47
2018-01-17T11:41:06.511Z,84.79
2018-01-17T11:43:41.553Z,85.20
2018-01-17T11:46:16.543Z,85.86
2018-01-17T11:48:51.415Z,86.74
2018-01-17T11:51:26.413Z,87.12
2018-01-17T11:54:01.394Z,87.64
2018-01-17T11:56:36.322Z,87.95
2018-01-17T11:59:12.155Z,87.94
2018-01-17T12:01:47.387Z,87.79
2018-01-17T12:04:22.247Z,87.99
2018-01-17T12:06:57.346Z,87.30
2018-01-17T12:09:32.586Z,87.40
2018-01-17T12:12:07.386Z,87.52
2018-01-17T12:14:41.742Z,87.22
2018-01-17T12:17:16.599Z,87.41
2018-01-17T12:19:51.820Z,87.58
2018-01-17T12:22:27.267Z,86.99
2018-01-17T12:25:02.307Z,87.73
2018-01-17T12:27:37.651Z,87.83
2018-01-17T12:30:12.767Z,88.08
2018-01-17T12:32:48.128Z,88.32
2018-01-17T12:35:22.727Z,88.27
2018-01-17T12:37:57.583Z,88.35
2018-01-17T12:40:32.554Z,87.36
2018-01-17T12:43:07.730Z,87.19
2018-01-17T12:45:43.383Z,87.25
2018-01-17T12:48:18.622Z,87.33
2018-01-17T12:50:53.486Z,87.45
2018-01-17T12:53:28.411Z,87.47
2018-01-17T12:56:03.355Z,87.75
2018-01-17T12:58:38.405Z,88.30
2018-01-17T13:01:13.486Z,89.05
2018-01-17T13:03:48.691Z,89.66
2018-01-17T13:06:23.486Z,89.77
2018-01-17T13:08:58.450Z,90.41
2018-01-17T13:11:33.436Z,90.54
2018-01-17T13:14:08.342Z,91.00
2018-01-17T13:16:43.647Z,91.80
2018-01-17T13:19:18.469Z,92.35
2018-01-17T13:21:53.606Z,92.72
2018-01-17T13:24:28.607Z,93.06
2018-01-17T13:27:03.626Z,93.76
2018-01-17T13:29:38.803Z,93.82
2018-01-17T13:32:13.709Z,93.51
2018-01-17T13:34:49.166Z,93.79
2018-01-17T13:37:23.811Z,93.62
2018-01-17T13:39:59.363Z,94.13
2018-01-17T13:42:34.502Z,94.49
2018-01-17T13:45:09.502Z,94.75
2018-01-17T13:47:44.226Z,95.08
2018-01-17T13:50:19.341Z,95.42
2018-01-17T13:52:54.702Z,95.29
2018-01-17T13:55:29.550Z,95.04
2018-01-17T13:58:04.543Z,94.58
2018-01-17T14:00:39.537Z,94.22
2018-01-17T14:03:14.535Z,93.79
2018-01-17T14:05:49.306Z,93.12
2018-01-17T14:08:24.435Z,92.58
2018-01-17T14:10:59.038Z,92.38
2018-01-17T14:13:33.859Z,92.34
2018-01-17T14:16:08.878Z,92.40
2018-01-17T14:18:43.975Z,92.31
2018-01-17T14:21:18.934Z,92.51
2018-01-17T14:23:53.874Z,92.45
2018-01-17T14:26:28.770Z,92.68
2018-01-17T14:29:03.547Z,92.32
2018-01-17T14:31:37.951Z,92.24
2018-01-17T14:34:12.914Z,92.35
2018-01-17T14:36:48.010Z,92.45
2018-01-17T14:39:22.986Z,92.41
2018-01-17T14:41:58.508Z,92.13
2018-01-17T14:44:33.827Z,92.00
2018-01-17T14:47:08.967Z,92.11
2018-01-17T14:49:44.002Z,92.15
2018-01-17T14:52:18.856Z,92.23
2018-01-17T14:54:53.828Z,92.26
2018-01-17T14:57:28.827Z,92.12
2018-01-17T15:00:03.172Z,91.87
2018-01-17T15:02:38.646Z,91.64
2018-01-17T15:05:13.622Z,91.70
2018-01-17T15:07:48.822Z,91.58
2018-01-17T15:10:23.790Z,91.63
2018-01-17T15:12:58.773Z,91.84
2018-01-17T15:15:33.778Z,91.68
2018-01-17T15:18:08.558Z,91.59
2018-01-17T15:20:43.419Z,91.90
2018-01-17T15:23:18.471Z,92.05
2018-01-17T15:25:52.992Z,91.99
2018-01-17T15:28:27.703Z,92.17
2018-01-17T15:31:02.742Z,92.07
2018-01-17T15:33:37.589Z,92.01
2018-01-17T15:36:12.801Z,91.53
2018-01-17T15:38:48.036Z,91.20
2018-01-17T15:41:22.671Z,91.15
2018-01-17T15:43:58.147Z,91.34
2018-01-17T15:46:32.871Z,91.58
2018-01-17T15:49:07.862Z,91.58
2018-01-17T15:51:42.934Z,91.78
2018-01-17T15:54:17.896Z,92.10
2018-01-17T15:56:53.219Z,92.38
2018-01-17T15:59:27.776Z,92.61
2018-01-17T16:02:02.760Z,92.97
2018-01-17T16:04:37.925Z,93.11
2018-01-17T16:07:12.906Z,93.15
2018-01-17T16:09:48.126Z,93.32
2018-01-17T16:12:22.573Z,93.71
2018-01-17T16:14:57.834Z,93.93
2018-01-17T16:17:33.823Z,94.39
2018-01-17T16:20:09.024Z,95.02
2018-01-17T16:22:44.110Z,95.23
2018-01-17T16:25:18.966Z,95.60
2018-01-17T16:27:53.960Z,96.04
2018-01-17T16:30:28.837Z,95.98
2018-01-17T16:33:03.766Z,95.85
2018-01-17T16:35:38.912Z,95.83
2018-01-17T16:38:13.915Z,95.68
2018-01-17T16:40:49.408Z,95.30
2018-01-17T16:43:24.650Z,95.11
2018-01-17T16:45:59.982Z,94.84
2018-01-17T16:48:34.736Z,94.49
2018-01-17T16:51:09.299Z,94.22
2018-01-17T16:53:44.350Z,94.32
2018-01-17T16:56:19.562Z,94.48
2018-01-17T16:58:54.747Z,94.34
2018-01-17T17:01:29.410Z,94.26
2018-01-17T17:04:03.769Z,94.13
2018-01-17T17:06:38.353Z,94.09
2018-01-17T17:09:13.762Z,94.20
2018-01-17T17:11:48.544Z,94.38
2018-01-17T17:14:23.451Z,94.28
2018-01-17T17:16:58.503Z,94.38
2018-01-17T17:19:33.062Z,94.49
2018-01-17T17:22:08.214Z,94.23
2018-01-17T17:24:43.331Z,94.30
2018-01-17T17:27:18.338Z,94.64
2018-01-17T17:29:53.730Z,95.18
2018-01-17T17:32:28.614Z,95.62
2018-01-17T17:35:04.005Z,95.77
2018-01-17T17:37:38.995Z,95.78
2018-01-17T17:40:13.610Z,95.83
2018-01-17T17:42:48.491Z,95.91
2018-01-17T17:45:23.466Z,95.91
2018-01-17T17:47:58.480Z,95.98
2018-01-17T17:50:33.243Z,96.09
2018-01-17T17:53:08.134Z,96.06
2018-01-17T17:55:43.190Z,95.92
2018-01-17T17:58:18.100Z,95.41
2018-01-17T18:00:54.042Z,95.17
2018-01-17T18:03:28.522Z,94.91
2018-01-17T18:06:04.074Z,94.43
2018-01-17T18:08:40.153Z,94.27
2018-01-17T18:11:15.291Z,93.85
2018-01-17T18:13:50.265Z,93.79
2018-01-17T18:16:25.252Z,93.69
2018-01-17T18:19:00.372Z,93.62
2018-01-17T18:21:35.165Z,93.43
2018-01-17T18:24:10.150Z,93.34
2018-01-17T18:26:45.357Z,93.53
2018-01-17T18:29:20.319Z,93.63
2018-01-17T18:31:55.222Z,93.40
2018-01-17T18:34:30.258Z,93.22
2018-01-17T18:37:05.042Z,93.33
2018-01-17T18:39:40.356Z,93.40
2018-01-17T18:42:15.308Z,93.57
2018-01-17T18:44:50.122Z,94.15
2018-01-17T18:47:25.170Z,94.53
2018-01-17T18:50:00.142Z,94.86
2018-01-17T18:52:34.703Z,94.98
2018-01-17T18:55:09.564Z,94.75
2018-01-17T18:57:44.562Z,94.68
2018-01-17T19:00:19.541Z,94.61
2018-01-17T19:02:54.546Z,94.62
2018-01-17T19:05:29.702Z,94.49
2018-01-17T19:08:04.703Z,94.10
2018-01-17T19:10:39.625Z,94.04
2018-01-17T19:13:14.560Z,94.07
2018-01-17T19:15:49.418Z,93.82
2018-01-17T19:18:26.239Z,93.89
2018-01-17T19:21:01.315Z,93.64
2018-01-17T19:23:36.485Z,93.75
2018-01-17T19:26:11.398Z,93.42
2018-01-17T19:28:46.547Z,93.21
2018-01-17T19:31:21.420Z,93.32
2018-01-17T19:33:56.554Z,93.42
2018-01-17T19:36:31.537Z,93.53
2018-01-17T19:39:06.531Z,93.34
2018-01-17T19:41:42.638Z,93.90
2018-01-17T19:44:17.706Z,94.34
2018-01-17T19:46:53.226Z,94.64
2018-01-17T19:49:28.318Z,95.14
2018-01-17T19:52:02.838Z,95.45
2018-01-17T19:54:37.687Z,95.72
2018-01-17T19:57:13.514Z,95.66
2018-01-17T19:59:48.644Z,95.93
2018-01-17T20:02:23.754Z,96.43
2018-01-17T20:04:58.794Z,96.85
2018-01-17T20:07:33.787Z,97.20
2018-01-17T20:10:08.334Z,97.35
2018-01-17T20:12:44.803Z,97.55
2018-01-17T20:15:19.676Z,97.88
2018-01-17T20:17:54.803Z,98.23
2018-01-17T20:20:29.613Z,98.60
2018-01-17T20:23:07.503Z,98.72
2018-01-17T20:25:42.816Z,98.69
2018-01-17T20:28:17.586Z,98.56
2018-01-17T20:30:52.560Z,98.72
2018-01-17T20:33:27.557Z,98.62
2018-01-17T20:36:02.416Z,98.23
2018-01-17T20:38:37.371Z,98.21
2018-01-17T20:41:12.058Z,97.93
2018-01-17T20:43:47.831Z,97.71
2018-01-17T20:46:22.554Z,97.65
2018-01-17T20:48:57.794Z,97.62
2018-01-17T20:51:33.018Z,97.50
2018-01-17T20:54:07.950Z,97.50
2018-01-17T20:56:43.494Z,97.37
2018-01-17T20:59:18.629Z,97.32
2018-01-17T21:01:53.717Z,97.35
2018-01-17T21:04:28.752Z,97.24
2018-01-17T21:07:03.578Z,97.13
2018-01-17T21:09:38.631Z,97.01
2018-01-17T21:12:13.529Z,96.89
2018-01-17T21:14:48.443Z,96.84
2018-01-17T21:17:23.006Z,96.58
2018-01-17T21:19:58.034Z,96.47
2018-01-17T21:22:33.043Z,96.27
2018-01-17T21:25:07.847Z,96.27
2018-01-17T21:27:43.113Z,96.41
2018-01-17T21:30:17.778Z,96.27
2018-01-17T21:32:53.114Z,96.30
2018-01-17T21:35:27.817Z,96.19
2018-01-17T21:38:02.785Z,95.94
2018-01-17T21:40:37.816Z,95.89
2018-01-17T21:43:18.174Z,95.93
2018-01-17T21:45:53.394Z,95.79
2018-01-17T21:48:28.218Z,95.71
2018-01-17T21:51:03.747Z,95.62
2018-01-17T21:53:38.874Z,95.60
2018-01-17T21:56:13.752Z,95.67
2018-01-17T21:58:48.947Z,95.20
2018-01-17T22:01:23.796Z,95.07
2018-01-17T22:03:58.883Z,94.89
2018-01-17T22:06:33.976Z,94.74
2018-01-17T22:09:08.979Z,94.69
2018-01-17T22:11:44.106Z,94.57
2018-01-17T22:14:19.207Z,94.48
2018-01-17T22:16:54.266Z,94.47
2018-01-17T22:19:28.855Z,94.30
2018-01-17T22:22:03.754Z,94.29
2018-01-17T22:24:38.365Z,94.55
2018-01-17T22:27:13.294Z,94.60
2018-01-17T22:29:48.308Z,94.63
2018-01-17T22:32:23.569Z,94.49
2018-01-17T22:34:58.756Z,94.44
2018-01-17T22:37:33.299Z,94.60
2018-01-17T22:40:07.995Z,94.60
2018-01-17T22:42:43.202Z,94.44
2018-01-17T22:45:18.108Z,94.27
2018-01-17T22:47:53.414Z,94.19
2018-01-17T22:50:28.114Z,94.13
2018-01-17T22:53:03.191Z,93.84
2018-01-17T22:55:37.797Z,93.67
2018-01-17T22:58:12.918Z,93.47
2018-01-17T23:00:47.962Z,93.54
2018-01-17T23:03:23.016Z,93.32
2018-01-17T23:05:58.158Z,93.50
2018-01-17T23:08:33.071Z,93.44
2018-01-17T23:11:08.135Z,93.17
2018-01-17T23:13:43.391Z,92.96
2018-01-17T23:16:18.915Z,93.06
2018-01-17T23:18:53.919Z,93.08
2018-01-17T23:21:28.613Z,93.01
2018-01-17T23:24:03.421Z,93.12
2018-01-17T23:26:38.287Z,92.90
2018-01-17T23:29:13.198Z,92.79
2018-01-17T23:31:48.287Z,92.68
2018-01-17T23:34:23.067Z,92.43
2018-01-17T23:36:57.955Z,92.24
2018-01-17T23:39:32.510Z,92.25
2018-01-17T23:42:07.403Z,92.35
2018-01-17T23:44:43.305Z,92.27
2018-01-17T23:47:17.942Z,92.17
2018-01-17T23:49:52.931Z,92.05
2018-01-17T23:52:27.853Z,92.14
2018-01-17T23:55:02.488Z,92.16
2018-01-17T23:57:37.419Z,92.03
